Terminal Aerodrome Forecast
Issued by NWS

Home | Current Version | Previous Version | Text Only | Print | Product List | Glossary On
Versions: 1 2 3 4 5 6 7 8 9 10 11 12 13 14 15 16 17 18
000
FTUS46 KSGX 201700
TAFCRQ
TAF
KCRQ 201722Z 2018/2118 VRB05KT P6SM OVC016
     FM201900 25009KT P6SM SCT020
     FM210300 VRB04KT P6SM OVC012=

USA.gov is the U.S. government's official web portal to all federal, state and local government web resources and services.